Time;durP1;ratioP1;P1;durP2;ratioP2;P2;SDS_P1;SDS_P2;PMS_P1;PMS_P2;Temp;Humidity;BMP_temperature;BMP_pressure;BME280_temperature;BME280_humidity;BME280_pressure;Samples;Min_cycle;Max_cycle;Signal;HPM_P1;HPM_P2
2021/06/22 00:00:33;;;;;;;10.35;5.30;;;;;;;22.22;60.21;100449.63;1678503;85;21087;-91
2021/06/22 00:03:02;;;;;;;12.10;5.97;;;;;;;22.18;60.35;100450.64;1662507;86;21524;-92
2021/06/22 00:05:32;;;;;;;16.30;4.55;;;;;;;22.14;60.49;100445.82;1662888;85;21546;-93
2021/06/22 00:07:58;;;;;;;9.33;4.20;;;;;;;22.12;60.62;100440.50;1648048;86;21020;-93
2021/06/22 00:10:30;;;;;;;8.13;4.33;;;;;;;22.07;60.71;100439.77;1647644;86;21536;-92
2021/06/22 00:12:58;;;;;;;7.85;4.83;;;;;;;22.04;60.81;100442.98;1631650;87;21043;-92
2021/06/22 00:15:28;;;;;;;8.58;4.90;;;;;;;22.00;60.90;100439.95;1660841;86;21054;-90
2021/06/22 00:17:56;;;;;;;5.55;4.00;;;;;;;21.98;61.06;100440.02;1643465;86;21114;-91
2021/06/22 00:20:23;;;;;;;7.47;4.67;;;;;;;21.97;61.15;100449.44;1643744;87;21063;-91
2021/06/22 00:22:55;;;;;;;7.78;4.58;;;;;;;21.93;61.27;100454.86;1643604;87;21098;-91
2021/06/22 00:25:26;;;;;;;12.13;5.30;;;;;;;21.90;61.35;100444.69;1643866;85;21139;-92
2021/06/22 00:27:53;;;;;;;13.58;4.97;;;;;;;21.88;61.50;100448.73;1643836;85;21789;-92
2021/06/22 00:30:21;;;;;;;7.90;4.67;;;;;;;21.87;61.57;100446.13;1643583;87;21545;-92
2021/06/22 00:32:51;;;;;;;11.10;4.97;;;;;;;21.85;61.65;100441.27;1609148;87;21602;-91
2021/06/22 00:35:18;;;;;;;10.35;5.22;;;;;;;21.84;61.76;100440.84;1663015;86;21058;-91
2021/06/22 00:37:47;;;;;;;9.35;5.17;;;;;;;21.82;61.84;100434.17;1643801;87;21308;-91
2021/06/22 00:40:15;;;;;;;9.75;5.22;;;;;;;21.80;61.92;100435.14;1634181;87;21094;-92
2021/06/22 00:42:43;;;;;;;9.58;5.17;;;;;;;21.76;62.00;100433.47;1662868;86;21046;-93
2021/06/22 00:45:11;;;;;;;12.60;5.28;;;;;;;21.72;62.11;100429.99;1636078;86;21090;-92
2021/06/22 00:47:38;;;;;;;11.48;5.22;;;;;;;21.67;62.21;100438.13;1662706;86;21619;-92
2021/06/22 00:50:05;;;;;;;14.73;5.25;;;;;;;21.65;62.31;100429.73;1643367;86;21075;-91
2021/06/22 00:52:32;;;;;;;11.57;5.62;;;;;;;21.60;62.38;100427.15;1660370;85;21773;-92
2021/06/22 00:54:59;;;;;;;11.28;5.33;;;;;;;21.57;62.46;100427.25;1662489;85;21067;-89
2021/06/22 01:01:56;;;;;;;6.78;4.72;;;;;;;21.53;62.60;100426.91;1624438;86;21145;-94
2021/06/22 01:11:56;;;;;;;10.20;4.92;;;;;;;21.45;63.00;100431.56;1522365;92;21179;-90
2021/06/22 01:14:24;;;;;;;10.25;5.25;;;;;;;21.44;63.13;100437.38;1511916;94;21182;-91
2021/06/22 01:16:51;;;;;;;10.08;5.10;;;;;;;21.41;63.19;100436.55;1512154;94;21123;-91
2021/06/22 01:19:18;;;;;;;9.60;5.53;;;;;;;21.39;63.32;100433.03;1522081;94;21150;-91
2021/06/22 01:21:45;;;;;;;11.20;5.47;;;;;;;21.35;63.39;100430.41;1524193;94;22397;-93
2021/06/22 01:24:15;;;;;;;11.93;5.25;;;;;;;21.34;63.49;100427.77;1523860;94;21146;-93
2021/06/22 01:26:52;;;;;;;8.55;4.80;;;;;;;21.32;63.59;100430.94;1524304;94;21136;-94
2021/06/22 01:29:19;;;;;;;9.85;5.03;;;;;;;21.31;63.71;100431.41;1523712;94;21240;-92
2021/06/22 01:31:47;;;;;;;10.90;5.20;;;;;;;21.27;63.76;100423.51;1503206;94;21107;-92
2021/06/22 01:34:15;;;;;;;8.35;5.00;;;;;;;21.26;63.87;100431.98;1523792;94;21837;-91
2021/06/22 01:36:45;;;;;;;10.65;5.30;;;;;;;21.24;64.00;100435.15;1529822;93;21138;-91
2021/06/22 01:43:11;;;;;;;9.50;5.70;;;;;;;21.20;64.14;100428.59;1651753;86;21041;-92
2021/06/22 01:45:40;;;;;;;14.45;5.15;;;;;;;21.16;64.26;100424.63;1649431;87;21076;-93
2021/06/22 01:48:09;;;;;;;11.55;5.67;;;;;;;21.14;64.34;100417.09;1655529;86;21145;-94
2021/06/22 01:50:39;;;;;;;11.05;5.15;;;;;;;21.14;64.42;100423.80;1666584;85;21059;-94
2021/06/22 01:53:06;;;;;;;12.15;5.58;;;;;;;21.14;64.48;100422.45;1645964;85;21530;-92
2021/06/22 01:55:38;;;;;;;10.90;6.10;;;;;;;21.12;64.56;100428.77;1666963;85;21660;-93
2021/06/22 01:58:18;;;;;;;14.00;7.58;;;;;;;21.09;64.64;100428.36;1666941;85;21114;-92
2021/06/22 02:00:57;;;;;;;16.90;8.05;;;;;;;21.07;64.77;100430.20;1642776;86;21016;-92
2021/06/22 02:03:27;;;;;;;13.45;5.90;;;;;;;21.07;64.88;100434.68;1645809;86;21112;-92
2021/06/22 02:05:55;;;;;;;10.28;6.17;;;;;;;21.05;64.88;100424.00;1666889;85;21130;-91
2021/06/22 02:08:22;;;;;;;9.63;6.20;;;;;;;21.05;64.96;100419.99;1666669;86;21090;-92
2021/06/22 02:10:51;;;;;;;12.93;6.95;;;;;;;21.05;65.07;100412.43;1645414;86;21075;-92
2021/06/22 02:13:20;;;;;;;18.35;7.60;;;;;;;21.02;65.09;100401.78;1678854;82;21674;-92
2021/06/22 02:15:46;;;;;;;10.78;7.20;;;;;;;21.09;65.08;100417.66;1684088;85;21041;-92
2021/06/22 02:18:13;;;;;;;13.43;6.58;;;;;;;21.11;65.07;100418.97;1684097;85;21589;-93
2021/06/22 02:20:41;;;;;;;11.45;6.22;;;;;;;21.13;65.07;100419.81;1684113;85;21125;-93
2021/06/22 02:23:07;;;;;;;13.50;7.37;;;;;;;21.15;65.08;100419.31;1684333;85;21095;-93
2021/06/22 02:25:36;;;;;;;12.37;6.00;;;;;;;21.16;65.06;100422.42;1684212;85;22704;-93
2021/06/22 02:28:13;;;;;;;12.40;6.37;;;;;;;21.15;65.09;100421.98;1684172;85;21552;-93
2021/06/22 02:30:39;;;;;;;15.50;7.70;;;;;;;21.18;65.13;100421.92;1684084;84;21112;-92
2021/06/22 02:33:08;;;;;;;16.32;7.20;;;;;;;21.22;65.19;100422.73;1684280;85;21073;-93
2021/06/22 02:35:51;;;;;;;12.33;6.67;;;;;;;21.25;65.23;100432.04;1643579;85;21615;-93
2021/06/22 02:38:19;;;;;;;12.30;7.33;;;;;;;21.16;65.25;100405.02;1666388;85;21037;-92
2021/06/22 02:40:46;;;;;;;14.68;7.17;;;;;;;21.31;65.31;100423.84;1684098;84;21300;-92
2021/06/22 02:43:14;;;;;;;12.55;7.22;;;;;;;21.35;65.34;100426.87;1664800;85;21045;-93
2021/06/22 02:45:43;;;;;;;11.75;7.03;;;;;;;21.40;65.32;100430.75;1684080;85;21088;-92
2021/06/22 02:48:10;;;;;;;12.50;6.72;;;;;;;21.44;65.35;100432.03;1683705;85;21100;-90
2021/06/22 02:50:41;;;;;;;10.75;6.83;;;;;;;21.50;65.28;100434.55;1683484;85;21977;-90
2021/06/22 02:56:56;;;;;;;11.25;6.75;;;;;;;21.65;65.19;100443.12;1506083;95;21096;-90
2021/06/22 03:03:39;;;;;;;8.00;5.37;;;;;;;21.84;64.81;100450.22;1427965;99;21135;-92
2021/06/22 03:06:06;;;;;;;10.75;4.95;;;;;;;21.97;64.54;100457.47;1425221;100;21767;-93
2021/06/22 03:08:35;;;;;;;11.78;5.28;;;;;;;22.06;64.39;100466.14;1424716;100;21174;-93
2021/06/22 03:11:02;;;;;;;10.60;5.60;;;;;;;22.16;64.31;100473.93;1425598;100;21681;-91
2021/06/22 03:13:29;;;;;;;11.35;5.22;;;;;;;22.25;64.19;100468.32;1453657;96;21662;-92
2021/06/22 03:15:56;;;;;;;11.12;5.62;;;;;;;22.36;64.12;100465.38;1467520;97;21156;-94
2021/06/22 03:18:22;;;;;;;12.40;4.90;;;;;;;22.48;63.88;100472.59;1467855;97;21814;-95
2021/06/22 03:20:51;;;;;;;12.98;5.37;;;;;;;22.59;63.66;100462.89;1468148;97;21127;-93
2021/06/22 03:23:18;;;;;;;10.25;4.85;;;;;;;22.73;63.35;100466.97;1467817;97;21128;-92
2021/06/22 03:25:45;;;;;;;11.25;5.08;;;;;;;22.89;63.10;100465.59;1469401;96;21180;-91
2021/06/22 03:28:27;;;;;;;10.68;5.35;;;;;;;23.11;62.82;100471.69;1491704;96;21184;-92
2021/06/22 03:30:54;;;;;;;7.08;4.60;;;;;;;24.13;63.11;100457.09;1490485;94;22150;-91
2021/06/22 03:33:20;;;;;;;10.90;5.33;;;;;;;25.14;61.60;100472.60;1500649;94;21233;-91
2021/06/22 03:35:48;;;;;;;8.00;4.30;;;;;;;25.14;61.60;100472.60;1573910;84;33977;-90
2021/06/22 03:38:17;;;;;;;5.95;4.10;;;;;;;25.91;60.90;100466.75;1705985;83;21059;-93
2021/06/22 03:40:44;;;;;;;10.28;4.47;;;;;;;26.36;58.87;100467.91;1706462;84;21052;-91
2021/06/22 03:43:11;;;;;;;10.75;5.00;;;;;;;26.28;57.79;100468.73;1706229;84;21889;-91
2021/06/22 03:45:39;;;;;;;10.45;4.62;;;;;;;26.22;57.35;100470.34;1686363;84;21059;-93
2021/06/22 03:48:09;;;;;;;13.53;4.78;;;;;;;26.24;57.08;100477.92;1686675;84;21008;-92
2021/06/22 03:50:39;;;;;;;9.55;4.70;;;;;;;26.80;57.52;100478.11;1686332;84;21052;-92
2021/06/22 03:53:09;;;;;;;9.30;4.87;;;;;;;27.88;56.83;100484.08;1686038;84;20957;-91
2021/06/22 03:55:35;;;;;;;10.63;4.12;;;;;;;29.33;55.74;100484.94;1706578;84;24015;-93
2021/06/22 03:58:04;;;;;;;7.55;3.75;;;;;;;30.78;53.68;100491.58;1706892;84;21022;-93
2021/06/22 04:00:31;;;;;;;11.68;3.92;;;;;;;32.01;51.82;100489.91;1706053;84;21115;-85
2021/06/22 04:02:59;;;;;;;9.03;4.05;;;;;;;33.11;49.92;100484.83;1706122;84;21079;-83
2021/06/22 04:05:30;;;;;;;8.38;3.65;;;;;;;33.99;48.19;100479.56;1701253;84;21099;-84
2021/06/22 04:07:58;;;;;;;7.55;3.75;;;;;;;34.66;46.34;100482.09;1658125;85;21843;-83
2021/06/22 04:10:29;;;;;;;11.90;3.87;;;;;;;35.19;45.06;100491.92;1677540;85;21087;-83
2021/06/22 04:12:55;;;;;;;10.63;3.35;;;;;;;35.93;43.97;100504.92;1676170;85;21601;-82
2021/06/22 04:15:24;;;;;;;5.87;3.50;;;;;;;36.67;42.48;100501.77;1681516;85;21204;-83
2021/06/22 04:18:24;;;;;;;7.30;3.65;;;;;;;37.27;40.87;100507.37;1680097;85;21114;-88
2021/06/22 04:21:43;;;;;;;8.48;3.42;;;;;;;37.77;39.91;100505.06;1681963;85;21664;-86
2021/06/22 04:27:40;;;;;;;11.00;3.40;;;;;;;39.19;37.20;100508.84;1691333;82;21634;-88
2021/06/22 04:30:10;;;;;;;9.03;3.20;;;;;;;39.79;35.65;100505.55;1686221;82;21148;-86
2021/06/22 04:32:37;;;;;;;11.30;3.30;;;;;;;40.03;34.59;100506.31;1661379;85;21809;-82
2021/06/22 04:35:05;;;;;;;7.22;3.50;;;;;;;40.49;34.07;100502.91;1684270;85;21765;-83
2021/06/22 04:37:35;;;;;;;7.58;3.70;;;;;;;41.00;33.17;100505.27;1683721;85;21182;-82
2021/06/22 04:40:05;;;;;;;4.10;3.25;;;;;;;41.37;32.43;100504.05;1684483;85;21101;-87
2021/06/22 04:42:32;;;;;;;8.53;4.00;;;;;;;41.73;31.36;100509.32;1684384;85;21124;-83
2021/06/22 04:45:01;;;;;;;9.48;4.17;;;;;;;42.10;30.97;100501.58;1683826;85;21120;-86
2021/06/22 04:47:27;;;;;;;8.43;4.10;;;;;;;42.53;30.36;100510.00;1684732;85;21783;-87
2021/06/22 04:49:54;;;;;;;9.43;4.83;;;;;;;43.13;29.86;100512.44;1684651;85;21129;-86
2021/06/22 04:52:23;;;;;;;10.03;3.85;;;;;;;43.36;28.75;100516.67;1684568;85;21045;-86
2021/06/22 04:54:50;;;;;;;9.93;3.95;;;;;;;43.48;28.42;100517.47;1684181;85;21047;-83
2021/06/22 04:57:20;;;;;;;7.40;4.12;;;;;;;43.52;27.94;100507.41;1684725;85;21125;-84
2021/06/22 04:59:46;;;;;;;8.73;4.25;;;;;;;43.81;27.31;100513.12;1684202;84;22620;-83
2021/06/22 05:02:12;;;;;;;12.45;3.62;;;;;;;44.12;27.11;100508.56;1684156;85;21050;-85
2021/06/22 05:04:43;;;;;;;7.50;4.37;;;;;;;44.53;26.64;100511.81;1682269;85;21615;-86
2021/06/22 05:07:10;;;;;;;7.53;4.00;;;;;;;44.74;25.86;100504.11;1676059;85;21425;-85
2021/06/22 05:09:37;;;;;;;8.05;3.90;;;;;;;44.95;25.61;100502.50;1675603;85;21082;-87
2021/06/22 05:12:09;;;;;;;7.20;3.67;;;;;;;45.12;25.12;100505.92;1676085;85;21757;-86
2021/06/22 05:14:34;;;;;;;8.83;3.27;;;;;;;45.20;24.75;100502.52;1664658;84;21087;-86
2021/06/22 05:17:01;;;;;;;9.23;3.50;;;;;;;45.43;24.61;100501.53;1664177;85;21119;-86
2021/06/22 05:19:27;;;;;;;8.80;4.22;;;;;;;45.61;24.11;100495.50;1664229;85;21044;-87
2021/06/22 05:21:54;;;;;;;6.20;3.70;;;;;;;45.49;23.85;100487.38;1667047;84;21096;-85
2021/06/22 05:24:21;;;;;;;5.50;3.20;;;;;;;45.58;23.70;100487.58;1662416;84;21808;-87
2021/06/22 05:26:48;;;;;;;10.68;3.92;;;;;;;45.90;23.57;100479.78;1666150;84;21053;-87
2021/06/22 05:29:17;;;;;;;7.92;3.87;;;;;;;46.15;23.12;100480.23;1697275;83;21081;-87
2021/06/22 05:31:44;;;;;;;10.53;4.30;;;;;;;46.33;22.87;100475.55;1683527;84;21155;-86
2021/06/22 05:34:12;;;;;;;8.13;4.12;;;;;;;46.62;22.67;100478.64;1664685;86;21593;-85
2021/06/22 05:36:41;;;;;;;6.33;3.62;;;;;;;46.69;22.10;100472.59;1664528;85;21817;-87
2021/06/22 05:39:08;;;;;;;5.95;3.75;;;;;;;46.49;22.00;100477.17;1664669;86;21001;-86
2021/06/22 05:41:35;;;;;;;5.55;3.52;;;;;;;46.46;21.95;100479.85;1664704;85;21114;-86
2021/06/22 05:44:01;;;;;;;12.55;3.98;;;;;;;46.27;21.55;100481.91;1664472;85;21129;-86
2021/06/22 05:46:28;;;;;;;8.55;3.45;;;;;;;44.59;21.54;100482.44;1664741;85;21086;-86
2021/06/22 05:48:55;;;;;;;9.83;3.85;;;;;;;42.43;22.40;100481.66;1664524;85;21757;-86
2021/06/22 05:51:21;;;;;;;9.55;4.00;;;;;;;40.67;23.60;100486.27;1664447;85;21612;-86
2021/06/22 05:53:48;;;;;;;10.43;3.98;;;;;;;39.15;24.80;100485.39;1664609;86;21043;-86
2021/06/22 05:56:15;;;;;;;12.68;4.70;;;;;;;37.95;25.93;100482.73;1665001;86;21102;-86
2021/06/22 05:58:42;;;;;;;10.20;4.00;;;;;;;36.71;27.02;100486.78;1664509;86;21114;-86
2021/06/22 06:01:09;;;;;;;8.20;3.62;;;;;;;35.64;28.13;100489.56;1664644;85;21861;-86
2021/06/22 06:03:35;;;;;;;6.72;3.80;;;;;;;34.75;29.42;100485.98;1664624;85;21039;-86
2021/06/22 06:06:04;;;;;;;11.20;3.92;;;;;;;34.04;30.43;100489.65;1664409;85;21813;-86
2021/06/22 06:08:36;;;;;;;11.35;4.42;;;;;;;33.49;31.47;100501.55;1664318;86;21113;-85
2021/06/22 06:11:02;;;;;;;8.43;4.30;;;;;;;33.04;32.28;100505.82;1663641;85;21075;-86
2021/06/22 06:13:35;;;;;;;9.10;4.40;;;;;;;32.58;32.95;100509.13;1664035;84;21860;-86
2021/06/22 06:16:06;;;;;;;10.40;4.25;;;;;;;32.26;33.87;100517.19;1664040;85;21455;-85
2021/06/22 06:18:33;;;;;;;9.38;5.08;;;;;;;31.99;34.46;100515.01;1664254;85;21063;-86
2021/06/22 06:21:00;;;;;;;7.17;4.78;;;;;;;31.72;35.01;100512.70;1664272;85;21652;-86
2021/06/22 06:23:31;;;;;;;11.95;4.40;;;;;;;31.45;35.47;100519.45;1664108;85;21118;-86
2021/06/22 06:25:56;;;;;;;12.18;5.30;;;;;;;31.30;36.01;100519.11;1664149;85;21848;-88
2021/06/22 06:28:26;;;;;;;11.18;4.55;;;;;;;31.20;36.51;100529.22;1664562;85;21080;-87
2021/06/22 06:30:52;;;;;;;9.65;4.80;;;;;;;31.09;36.61;100537.20;1664060;86;21102;-86
2021/06/22 06:33:18;;;;;;;10.20;5.17;;;;;;;30.96;37.13;100547.11;1664325;85;21068;-87
2021/06/22 06:35:45;;;;;;;11.15;5.20;;;;;;;30.84;37.48;100553.28;1664479;85;21155;-87
2021/06/22 06:38:12;;;;;;;17.87;5.47;;;;;;;30.74;38.05;100562.00;1696451;84;21787;-87
2021/06/22 06:40:40;;;;;;;12.23;5.17;;;;;;;30.69;38.46;100560.08;1696152;84;21067;-86
2021/06/22 06:43:06;;;;;;;9.20;5.60;;;;;;;30.59;38.62;100565.19;1683341;85;21038;-86
2021/06/22 06:45:33;;;;;;;10.43;5.65;;;;;;;30.49;38.97;100568.09;1664352;85;21534;-86
2021/06/22 06:48:00;;;;;;;12.13;5.12;;;;;;;30.42;39.39;100572.15;1664422;85;21056;-87
2021/06/22 06:50:26;;;;;;;20.55;5.37;;;;;;;30.40;39.50;100574.09;1664444;85;21763;-86
2021/06/22 06:52:53;;;;;;;16.40;5.53;;;;;;;30.31;39.65;100570.05;1664118;85;21819;-86
2021/06/22 06:55:26;;;;;;;8.73;5.15;;;;;;;30.25;39.76;100566.35;1664510;85;21110;-86
2021/06/22 06:57:55;;;;;;;;;;;;;;;30.21;40.04;100568.38;1666976;85;21128;-84
2021/06/22 07:00:23;;;;;;;12.28;5.15;;;;;;;30.20;40.40;100560.31;1681565;85;20139;-88
2021/06/22 07:02:50;;;;;;;11.25;4.60;;;;;;;30.09;40.55;100545.16;1652501;85;21791;-88
2021/06/22 07:05:18;;;;;;;9.55;5.20;;;;;;;30.13;40.76;100558.96;1657830;85;21056;-88
2021/06/22 07:07:45;;;;;;;13.78;4.90;;;;;;;30.15;41.18;100557.89;1664342;84;21066;-88
2021/06/22 07:10:12;;;;;;;15.55;5.50;;;;;;;30.15;41.02;100561.97;1664367;85;21043;-88
2021/06/22 07:12:39;;;;;;;17.62;5.05;;;;;;;30.14;41.25;100558.84;1664625;85;21047;-88
2021/06/22 07:15:07;;;;;;;10.70;5.40;;;;;;;30.10;41.16;100554.57;1648343;85;22475;-88
2021/06/22 07:17:34;;;;;;;9.43;4.83;;;;;;;30.04;41.12;100549.03;1645012;86;21078;-88
2021/06/22 07:20:02;;;;;;;11.73;5.75;;;;;;;29.95;41.45;100545.99;1645220;86;21083;-87
2021/06/22 07:22:29;;;;;;;10.98;4.97;;;;;;;29.98;41.55;100539.91;1645173;87;21179;-88
2021/06/22 07:24:56;;;;;;;26.12;6.03;;;;;;;30.02;41.79;100546.89;1645290;86;21063;-88
2021/06/22 07:27:22;;;;;;;34.33;7.62;;;;;;;30.08;41.75;100534.80;1645289;86;21779;-88
2021/06/22 07:29:49;;;;;;;16.30;6.95;;;;;;;30.13;41.79;100539.96;1645121;86;21544;-88
2021/06/22 07:32:16;;;;;;;13.85;5.92;;;;;;;30.03;41.72;100532.83;1645228;86;21051;-88
2021/06/22 07:34:43;;;;;;;14.85;5.60;;;;;;;29.92;41.79;100537.56;1645203;86;21592;-88
2021/06/22 07:37:09;;;;;;;12.88;4.90;;;;;;;29.84;41.96;100537.12;1645430;86;21188;-88
2021/06/22 07:39:36;;;;;;;14.00;5.37;;;;;;;29.66;42.14;100533.14;1645354;86;22571;-88
2021/06/22 07:42:04;;;;;;;17.60;5.00;;;;;;;29.58;42.46;100539.51;1648251;86;21098;-88
2021/06/22 07:44:31;;;;;;;15.58;6.78;;;;;;;29.61;42.60;100536.59;1645405;86;21055;-88
2021/06/22 07:46:58;;;;;;;17.85;5.85;;;;;;;29.73;42.66;100543.20;1645354;86;21095;-88
2021/06/22 07:49:26;;;;;;;10.98;7.78;;;;;;;29.81;42.39;100545.47;1645228;87;21086;-88
2021/06/22 07:51:53;;;;;;;9.30;5.22;;;;;;;29.92;42.51;100542.98;1645818;86;22514;-88
2021/06/22 07:54:20;;;;;;;13.55;4.65;;;;;;;30.03;42.39;100550.02;1645767;86;21020;-88
2021/06/22 07:56:47;;;;;;;21.07;6.22;;;;;;;30.04;42.26;100551.73;1645520;86;21612;-88
2021/06/22 07:59:13;;;;;;;14.05;5.33;;;;;;;30.10;42.35;100549.63;1645497;87;21125;-88
2021/06/22 08:01:40;;;;;;;21.90;5.75;;;;;;;30.16;42.50;100549.26;1645670;87;21035;-89
2021/06/22 08:04:07;;;;;;;20.95;8.80;;;;;;;30.22;42.49;100546.20;1645089;86;21778;-87
2021/06/22 08:06:34;;;;;;;15.05;8.23;;;;;;;30.31;42.45;100544.25;1645351;86;21549;-84
2021/06/22 08:09:03;;;;;;;20.50;5.67;;;;;;;30.33;41.98;100551.88;1644826;87;21138;-88
2021/06/22 08:11:29;;;;;;;16.80;8.65;;;;;;;30.32;41.93;100541.97;1645515;86;21099;-89
2021/06/22 08:13:56;;;;;;;11.93;5.40;;;;;;;30.38;41.99;100548.87;1651531;85;21584;-88
2021/06/22 08:16:23;;;;;;;24.92;9.43;;;;;;;30.42;41.86;100552.65;1673932;85;21793;-86
2021/06/22 08:18:50;;;;;;;8.65;5.25;;;;;;;30.51;41.86;100552.58;1673938;85;21145;-88
2021/06/22 08:21:17;;;;;;;14.53;6.78;;;;;;;30.60;41.82;100550.66;1674034;85;21026;-88
2021/06/22 08:23:44;;;;;;;16.37;6.17;;;;;;;30.69;41.54;100551.94;1674092;85;21605;-89
2021/06/22 08:26:11;;;;;;;15.48;5.72;;;;;;;30.60;41.27;100554.73;1674414;85;21003;-89
2021/06/22 08:28:38;;;;;;;13.18;5.15;;;;;;;30.57;41.20;100555.40;1654972;85;22602;-88
2021/06/22 08:31:04;;;;;;;13.20;5.75;;;;;;;30.43;41.02;100564.41;1674137;85;21070;-88
2021/06/22 08:33:31;;;;;;;22.27;6.55;;;;;;;30.30;41.20;100555.23;1674247;85;21152;-87
2021/06/22 08:35:58;;;;;;;18.75;6.42;;;;;;;30.33;41.28;100556.41;1673884;85;21035;-88
2021/06/22 08:38:25;;;;;;;18.02;6.87;;;;;;;30.25;41.24;100550.06;1674276;85;21611;-88
2021/06/22 08:40:52;;;;;;;20.00;6.70;;;;;;;30.29;41.35;100548.91;1674298;85;21749;-88
2021/06/22 08:43:19;;;;;;;24.95;5.90;;;;;;;30.35;41.23;100552.66;1674211;85;21078;-88
2021/06/22 08:45:48;;;;;;;9.78;4.70;;;;;;;30.41;41.18;100551.41;1674215;85;21572;-87
2021/06/22 08:48:15;;;;;;;13.08;5.78;;;;;;;30.44;40.95;100553.92;1674318;85;21079;-88
2021/06/22 08:50:44;;;;;;;16.40;5.58;;;;;;;30.38;40.94;100557.02;1674197;85;21078;-88
2021/06/22 08:53:12;;;;;;;13.43;5.20;;;;;;;30.30;40.94;100551.16;1674338;85;21779;-87
2021/06/22 08:55:39;;;;;;;17.57;5.55;;;;;;;30.28;41.17;100558.03;1674196;85;21027;-87
2021/06/22 08:58:10;;;;;;;13.20;4.90;;;;;;;30.25;41.05;100556.84;1674236;85;21642;-87
2021/06/22 09:00:39;;;;;;;9.60;4.78;;;;;;;30.23;41.01;100562.86;1674024;85;21098;-87
2021/06/22 09:03:18;;;;;;;12.65;5.10;;;;;;;30.28;41.07;100560.75;1674476;85;21074;-87
2021/06/22 09:05:50;;;;;;;12.25;5.62;;;;;;;30.33;41.06;100558.67;1674336;85;21179;-87
2021/06/22 09:08:20;;;;;;;19.67;6.62;;;;;;;30.34;41.25;100569.91;1674267;85;21584;-87
2021/06/22 09:10:47;;;;;;;28.35;8.60;;;;;;;30.28;41.41;100557.17;1674335;85;21034;-87
2021/06/22 09:13:17;;;;;;;31.62;8.20;;;;;;;30.11;41.76;100559.05;1674395;85;21557;-87
2021/06/22 09:15:46;;;;;;;21.97;7.45;;;;;;;29.89;42.28;100563.51;1674030;85;22387;-88
2021/06/22 09:18:26;;;;;;;24.50;8.30;;;;;;;29.72;42.72;100580.73;1674231;85;21882;-88
2021/06/22 09:21:02;;;;;;;17.30;8.00;;;;;;;29.49;43.10;100577.10;1672032;85;22332;-87
2021/06/22 09:23:35;;;;;;;23.38;8.75;;;;;;;29.26;43.31;100581.98;1673343;85;21613;-87
2021/06/22 09:26:12;;;;;;;17.55;7.03;;;;;;;29.19;43.66;100599.09;1673437;85;21545;-87
2021/06/22 09:28:39;;;;;;;16.65;7.78;;;;;;;29.16;43.98;100603.80;1674520;85;21627;-87
2021/06/22 09:31:13;;;;;;;22.13;8.63;;;;;;;29.06;44.25;100602.05;1674236;85;22438;-88
2021/06/22 09:33:45;;;;;;;17.70;8.50;;;;;;;29.00;44.30;100637.13;1673417;85;21079;-87
2021/06/22 09:36:26;;;;;;;10.30;7.45;;;;;;;28.74;44.59;100619.55;1673833;85;21552;-88
2021/06/22 09:39:00;;;;;;;14.30;7.85;;;;;;;28.57;45.17;100621.80;1674246;85;21082;-87
2021/06/22 09:41:34;;;;;;;16.97;8.30;;;;;;;28.56;45.68;100614.61;1674439;85;21119;-87
2021/06/22 09:44:14;;;;;;;14.07;8.50;;;;;;;28.76;45.85;100614.92;1674120;85;21737;-87
2021/06/22 09:47:00;;;;;;;13.18;7.35;;;;;;;28.73;45.84;100623.20;1673827;85;22292;-87
2021/06/22 09:49:32;;;;;;;15.98;7.90;;;;;;;28.76;46.17;100628.47;1620042;87;21666;-87
2021/06/22 09:52:08;;;;;;;12.50;8.28;;;;;;;28.82;46.37;100632.69;1624392;87;21086;-87
2021/06/22 09:54:50;;;;;;;11.85;7.85;;;;;;;28.95;46.34;100631.56;1622997;87;21098;-87
2021/06/22 09:57:19;;;;;;;11.45;6.40;;;;;;;28.98;46.30;100630.02;1603854;88;21780;-87
2021/06/22 09:59:56;;;;;;;8.68;5.90;;;;;;;28.98;46.45;100644.92;1622857;87;21122;-87
2021/06/22 10:02:26;;;;;;;13.08;7.22;;;;;;;28.95;46.52;100633.78;1632322;87;21134;-86
2021/06/22 10:04:58;;;;;;;15.50;7.00;;;;;;;28.94;46.53;100628.44;1624311;86;21075;-87
2021/06/22 10:07:26;;;;;;;13.60;7.90;;;;;;;28.94;46.71;100636.08;1626592;87;21091;-87
2021/06/22 10:09:57;;;;;;;13.08;7.03;;;;;;;28.96;46.64;100639.61;1622792;86;21757;-88
2021/06/22 10:12:26;;;;;;;11.20;7.05;;;;;;;28.95;46.65;100650.03;1620830;88;21154;-86
2021/06/22 10:14:56;;;;;;;11.95;6.67;;;;;;;28.90;46.63;100650.75;1626071;86;21077;-87
2021/06/22 10:17:24;;;;;;;14.15;6.92;;;;;;;28.86;46.71;100662.23;1637751;87;21070;-88
2021/06/22 10:19:58;;;;;;;16.93;7.75;;;;;;;28.85;46.96;100658.24;1637057;86;21146;-88
2021/06/22 10:22:27;;;;;;;11.68;7.83;;;;;;;29.01;46.97;100667.80;1637195;87;21808;-88
2021/06/22 10:24:57;;;;;;;16.05;8.23;;;;;;;29.13;46.75;100667.61;1637135;87;21110;-88
2021/06/22 10:27:24;;;;;;;14.70;8.05;;;;;;;29.14;46.53;100667.57;1637087;87;21098;-88
2021/06/22 10:29:53;;;;;;;15.13;7.00;;;;;;;29.06;46.57;100670.66;1637043;86;21234;-88
2021/06/22 10:32:22;;;;;;;17.17;8.60;;;;;;;29.01;46.69;100672.73;1636973;87;21697;-88
2021/06/22 10:34:54;;;;;;;10.25;6.45;;;;;;;29.07;46.80;100675.59;1636935;87;21764;-88
2021/06/22 10:37:30;;;;;;;13.03;7.72;;;;;;;29.09;46.72;100680.45;1637009;87;21198;-88
2021/06/22 10:40:23;;;;;;;10.88;6.40;;;;;;;29.01;46.63;100678.16;1637079;87;21038;-87
2021/06/22 10:42:56;;;;;;;15.03;7.97;;;;;;;28.99;46.68;100679.20;1633651;86;21115;-88
2021/06/22 10:45:23;;;;;;;14.85;7.37;;;;;;;28.93;46.67;100672.28;1652364;85;21046;-87
2021/06/22 10:47:50;;;;;;;10.85;6.92;;;;;;;29.01;46.89;100670.52;1679171;85;21774;-89
2021/06/22 10:50:28;;;;;;;17.30;7.45;;;;;;;29.05;46.65;100675.67;1679081;85;21055;-88
2021/06/22 10:53:06;;;;;;;16.70;8.23;;;;;;;29.06;46.87;100671.15;1679112;85;21062;-87
2021/06/22 10:55:43;;;;;;;12.68;7.87;;;;;;;29.16;46.67;100664.30;1678299;84;21238;-89
2021/06/22 10:58:14;;;;;;;13.08;7.20;;;;;;;29.17;46.73;100666.52;1679429;85;21054;-88
2021/06/22 11:00:49;;;;;;;14.78;7.12;;;;;;;29.31;46.68;100666.66;1679467;85;21765;-88
2021/06/22 11:03:31;;;;;;;15.20;8.63;;;;;;;29.55;46.57;100664.92;1678917;85;21577;-88
2021/06/22 11:06:15;;;;;;;19.50;7.87;;;;;;;29.56;46.18;100660.77;1679195;85;21573;-89
2021/06/22 11:08:42;;;;;;;16.67;6.95;;;;;;;29.61;45.96;100665.92;1679124;85;21307;-88
2021/06/22 11:11:15;;;;;;;17.23;7.03;;;;;;;29.51;45.73;100666.02;1678877;85;21015;-88
2021/06/22 11:13:54;;;;;;;17.87;7.33;;;;;;;29.36;45.63;100663.70;1679366;85;21832;-88
2021/06/22 11:16:25;;;;;;;19.92;6.60;;;;;;;29.32;45.56;100665.70;1650806;84;21098;-86
2021/06/22 11:18:58;;;;;;;16.02;6.75;;;;;;;29.18;45.66;100670.50;1645206;87;21051;-88
2021/06/22 11:21:35;;;;;;;14.33;5.60;;;;;;;29.30;45.74;100675.77;1645665;86;21154;-88
2021/06/22 11:24:11;;;;;;;20.62;6.80;;;;;;;29.50;45.67;100682.78;1645461;86;21067;-87
2021/06/22 11:26:51;;;;;;;11.80;6.80;;;;;;;29.72;45.36;100681.61;1646014;86;21983;-88
2021/06/22 11:29:25;;;;;;;13.30;6.65;;;;;;;29.90;44.95;100686.03;1662380;86;21015;-87
2021/06/22 11:31:53;;;;;;;;;;;;;;;29.87;44.60;100683.48;1657552;86;21536;-87
2021/06/22 11:34:24;;;;;;;19.32;6.65;;;;;;;29.76;44.46;100673.22;1663011;85;21058;-87
2021/06/22 11:36:55;;;;;;;13.25;6.20;;;;;;;29.43;44.46;100669.16;1662118;86;21090;-87
2021/06/22 11:39:32;;;;;;;14.47;6.35;;;;;;;29.16;44.70;100685.98;1661926;86;21794;-87
2021/06/22 11:42:14;;;;;;;12.35;6.30;;;;;;;28.93;45.17;100684.47;1661768;86;21056;-86
2021/06/22 11:44:49;;;;;;;11.55;5.97;;;;;;;28.78;45.46;100691.56;1662034;86;21648;-87
2021/06/22 11:47:33;;;;;;;8.73;5.75;;;;;;;28.71;45.62;100687.91;1661950;86;21058;-87
2021/06/22 11:50:15;;;;;;;18.02;6.37;;;;;;;28.56;45.87;100703.11;1660390;86;21093;-88
2021/06/22 11:52:45;;;;;;;16.57;7.12;;;;;;;28.39;45.98;100701.22;1661175;85;21794;-87
2021/06/22 11:55:14;;;;;;;15.05;8.60;;;;;;;28.20;46.11;100676.91;1661718;86;21026;-87
2021/06/22 11:57:48;;;;;;;14.85;6.47;;;;;;;27.99;46.50;100667.54;1663129;86;21090;-87